createdAt,value
2022-08-12T00:04:01.040Z,96357.69
2022-08-12T00:09:26.213Z,96355.69
2022-08-12T00:14:47.370Z,96350.03
2022-08-12T00:20:08.086Z,96356.16
2022-08-12T00:25:55.737Z,96360.38
2022-08-12T00:31:11.411Z,96338.97
2022-08-12T00:36:35.780Z,96358.66
2022-08-12T00:41:58.725Z,96343.78
2022-08-12T00:47:02.185Z,96369.19
2022-08-12T00:52:06.589Z,96343.94
2022-08-12T00:57:11.001Z,96361.63
2022-08-12T01:02:22.722Z,96366.88
2022-08-12T01:07:46.063Z,96350.69
2022-08-12T01:12:50.048Z,96353.75
2022-08-12T01:17:52.413Z,96353.75
2022-08-12T01:23:15.613Z,96343.22
2022-08-12T01:28:20.314Z,96334.88
2022-08-12T01:33:25.467Z,96349.66
2022-08-12T01:38:33.475Z,96324.56
2022-08-12T01:43:36.959Z,96331.91
2022-08-12T01:48:58.014Z,96343.75
2022-08-12T01:54:07.222Z,96331.31
2022-08-12T01:59:31.892Z,96312.28
2022-08-12T02:05:14.987Z,96334.66
2022-08-12T02:11:13.668Z,96291.53
2022-08-12T02:16:45.663Z,96333.72
2022-08-12T02:22:17.586Z,96297.00
2022-08-12T02:27:22.270Z,96313.19
2022-08-12T02:32:24.736Z,96327.09
2022-08-12T02:37:30.224Z,96325.41
2022-08-12T02:42:34.821Z,96319.50
2022-08-12T02:47:59.603Z,96345.63
2022-08-12T02:53:05.222Z,96342.25
2022-08-12T02:58:12.373Z,96343.63
2022-08-12T03:03:22.028Z,96345.91
2022-08-12T03:08:33.027Z,96352.28
2022-08-12T03:13:40.432Z,96358.47
2022-08-12T03:18:46.056Z,96350.25
2022-08-12T03:23:48.915Z,96316.91
2022-08-12T03:28:52.015Z,96354.28
2022-08-12T03:34:01.697Z,96354.16
2022-08-12T03:39:41.664Z,96355.59
2022-08-12T03:45:15.329Z,96366.06
2022-08-12T03:50:36.902Z,96361.63
2022-08-12T03:55:58.742Z,96364.13
2022-08-12T04:01:01.638Z,96371.81
2022-08-12T04:06:04.049Z,96367.81
2022-08-12T04:11:28.015Z,96376.72
2022-08-12T04:16:33.148Z,96353.59
2022-08-12T04:21:36.438Z,96350.66
2022-08-12T04:26:44.800Z,96370.47
2022-08-12T04:31:49.637Z,96377.00
2022-08-12T04:37:06.320Z,96378.91
2022-08-12T04:42:08.728Z,96329.84
2022-08-12T04:47:24.360Z,96327.72
2022-08-12T04:52:28.071Z,96364.09
2022-08-12T04:57:33.152Z,96347.59
2022-08-12T05:02:35.473Z,96349.53
2022-08-12T05:07:54.035Z,96358.00
2022-08-12T05:13:02.716Z,96318.53
2022-08-12T05:18:19.261Z,96344.56
2022-08-12T05:23:22.796Z,96311.06
2022-08-12T05:28:27.456Z,96335.28
2022-08-12T05:33:43.658Z,96350.91
2022-08-12T05:38:56.597Z,96342.47
2022-08-12T05:44:01.705Z,96316.75
2022-08-12T05:49:35.017Z,96327.75
2022-08-12T05:54:57.005Z,96325.38
2022-08-12T06:00:00.034Z,96314.13
2022-08-12T06:05:14.230Z,96325.22
2022-08-12T06:10:18.075Z,96312.78
2022-08-12T06:15:40.111Z,96298.72
2022-08-12T06:20:42.355Z,96288.28
2022-08-12T06:25:44.537Z,96287.69
2022-08-12T06:31:02.615Z,96272.88
2022-08-12T06:36:09.776Z,96270.97
2022-08-12T06:41:31.249Z,96261.81
2022-08-12T06:46:37.091Z,96246.16
2022-08-12T06:51:39.694Z,96244.31
2022-08-12T07:02:04.405Z,96237.22
2022-08-12T07:07:10.630Z,96239.84
2022-08-12T07:12:20.110Z,96250.59
2022-08-12T07:17:22.266Z,96252.69
2022-08-12T07:22:24.357Z,96245.38
2022-08-12T07:27:27.509Z,96243.69
2022-08-12T07:32:29.757Z,96221.41
2022-08-12T07:37:31.995Z,96252.28
2022-08-12T07:42:35.808Z,96238.13
2022-08-12T07:47:41.557Z,96240.25
2022-08-12T07:52:47.268Z,96244.63
2022-08-12T07:57:58.072Z,96221.09
2022-08-12T08:03:01.425Z,96240.06
2022-08-12T08:08:13.994Z,96229.78
2022-08-12T08:13:16.771Z,96234.47
2022-08-12T08:18:26.362Z,96229.06
2022-08-12T08:23:56.200Z,96220.69
2022-08-12T08:29:01.255Z,96223.25
2022-08-12T08:34:47.177Z,96226.34
2022-08-12T08:39:28.099Z,96220.91
2022-08-12T08:44:30.489Z,96207.59
2022-08-12T08:49:51.334Z,96209.91
2022-08-12T08:54:53.819Z,96193.63
2022-08-12T08:59:56.227Z,96209.41
2022-08-12T09:05:12.373Z,96183.09
2022-08-12T09:10:30.558Z,96193.91
2022-08-12T09:15:36.379Z,96186.63
2022-08-12T09:20:42.419Z,96186.53
2022-08-12T09:25:48.500Z,96175.47
2022-08-12T09:30:51.461Z,96178.97
2022-08-12T09:36:03.079Z,96174.44
2022-08-12T09:42:33.966Z,96172.19
2022-08-12T09:46:29.693Z,96162.91
2022-08-12T09:51:37.646Z,96150.53
2022-08-12T09:56:58.036Z,96159.63
2022-08-12T10:02:42.913Z,96158.69
2022-08-12T10:07:28.715Z,96143.72
2022-08-12T10:13:07.205Z,96147.59
2022-08-12T10:18:14.685Z,96148.72
2022-08-12T10:23:17.610Z,96149.78
2022-08-12T10:28:38.893Z,96140.75
2022-08-12T10:33:54.811Z,96149.78
2022-08-12T10:39:00.676Z,96148.03
2022-08-12T10:44:05.410Z,96121.72
2022-08-12T10:50:02.724Z,96122.41
2022-08-12T10:54:36.182Z,96104.66
2022-08-12T11:00:29.263Z,96098.56
2022-08-12T11:07:01.976Z,96101.56
2022-08-12T11:10:24.484Z,96084.97
2022-08-12T11:15:33.206Z,96085.19
2022-08-12T11:20:58.109Z,96072.13
2022-08-12T11:26:07.653Z,96082.91
2022-08-12T11:31:14.089Z,96043.66
2022-08-12T11:36:17.539Z,96076.16
2022-08-12T11:41:28.048Z,96068.78
2022-08-12T11:46:37.423Z,96061.53
2022-08-12T11:51:57.503Z,96052.44
2022-08-12T11:57:02.095Z,96054.34
2022-08-12T12:02:05.867Z,96038.91
2022-08-12T12:07:11.528Z,96031.72
2022-08-12T12:12:15.048Z,96039.88
2022-08-12T12:17:17.806Z,96033.09
2022-08-12T12:22:23.589Z,96046.38
2022-08-12T12:27:37.358Z,96000.69
2022-08-12T12:32:53.120Z,96031.22
2022-08-12T12:38:05.311Z,96039.13
2022-08-12T12:43:15.705Z,96021.53
2022-08-12T12:48:19.436Z,96027.19
2022-08-12T12:54:06.541Z,96003.72
2022-08-12T12:58:50.022Z,95991.00
2022-08-12T13:03:55.532Z,95957.09
2022-08-12T13:09:02.789Z,95991.31
2022-08-12T13:14:12.265Z,95995.38
2022-08-12T13:19:16.614Z,96000.41
2022-08-12T13:24:27.793Z,96004.22
2022-08-12T13:29:34.125Z,95989.28
2022-08-12T13:34:37.140Z,95979.50
2022-08-12T13:39:39.542Z,96010.50
2022-08-12T13:44:42.521Z,95987.34
2022-08-12T13:49:54.467Z,95986.59
2022-08-12T13:54:58.427Z,95995.22
2022-08-12T14:00:01.853Z,95978.94
2022-08-12T14:05:38.241Z,95972.22
2022-08-12T14:10:50.903Z,95967.69
2022-08-12T14:15:55.710Z,95980.19
2022-08-12T14:21:05.287Z,95973.13
2022-08-12T14:26:11.892Z,95980.78
2022-08-12T14:31:18.443Z,95968.56
2022-08-12T14:36:23.275Z,95961.81
2022-08-12T14:41:37.193Z,95981.56
2022-08-12T14:46:57.940Z,95955.88
2022-08-12T14:52:57.764Z,95968.47
2022-08-12T14:57:24.617Z,95958.78
2022-08-12T15:02:38.397Z,95970.41
2022-08-12T15:07:49.477Z,95951.63
2022-08-12T15:12:54.878Z,95955.94
2022-08-12T15:18:02.984Z,95945.59
2022-08-12T15:23:17.788Z,95947.63
2022-08-12T15:28:27.596Z,95942.50
2022-08-12T15:33:44.697Z,95942.50
2022-08-12T15:38:47.958Z,95939.19
2022-08-12T15:44:17.161Z,95936.69
2022-08-12T15:49:16.683Z,95936.50
2022-08-12T15:54:32.245Z,95922.88
2022-08-12T16:00:04.075Z,95922.47
2022-08-12T16:05:01.241Z,95923.72
2022-08-12T16:10:05.537Z,95928.69
2022-08-12T16:15:13.900Z,95924.09
2022-08-12T16:20:33.002Z,95925.75
2022-08-12T16:26:03.049Z,95933.19
2022-08-12T16:31:02.918Z,95929.47
2022-08-12T16:36:18.704Z,95924.47
2022-08-12T16:41:23.161Z,95933.94
2022-08-12T16:46:33.514Z,95911.06
2022-08-12T16:51:40.596Z,95919.53
2022-08-12T16:56:55.192Z,95938.28
2022-08-12T17:02:02.724Z,95932.00
2022-08-12T17:07:13.878Z,95954.66
2022-08-12T17:12:18.113Z,95935.69
2022-08-12T17:17:26.308Z,95950.66
2022-08-12T17:22:42.146Z,95954.56
2022-08-12T17:27:46.890Z,95933.47
2022-08-12T17:33:02.977Z,95972.63
2022-08-12T17:38:12.117Z,95981.63
2022-08-12T17:43:54.659Z,95985.41
2022-08-12T17:48:54.962Z,95988.09
2022-08-12T17:54:11.527Z,95962.72
2022-08-12T17:59:47.251Z,95949.44
2022-08-12T18:05:04.948Z,95983.72
2022-08-12T18:10:09.161Z,96001.31
2022-08-12T18:15:26.713Z,96003.91
2022-08-12T18:20:44.201Z,96032.81
2022-08-12T18:26:13.862Z,96032.41
2022-08-12T18:31:44.630Z,96033.69
2022-08-12T18:36:55.795Z,96008.09
2022-08-12T18:41:59.743Z,96034.41
2022-08-12T18:47:05.809Z,96011.25
2022-08-12T18:52:12.191Z,96026.41
2022-08-12T18:57:19.848Z,96058.13
2022-08-12T19:02:40.580Z,96063.34
2022-08-12T19:08:00.347Z,96059.31
2022-08-12T19:13:25.140Z,96054.84
2022-08-12T19:18:39.823Z,96045.41
2022-08-12T19:23:42.985Z,96070.22
2022-08-12T19:28:47.979Z,96063.28
2022-08-12T19:34:21.652Z,96043.91
2022-08-12T19:39:15.354Z,96050.94
2022-08-12T19:44:38.211Z,96047.50
2022-08-12T19:49:55.157Z,96070.94
2022-08-12T19:54:57.736Z,96073.81
2022-08-12T20:00:07.749Z,96061.28
2022-08-12T20:06:07.186Z,96071.16
2022-08-12T20:10:36.136Z,96059.47
2022-08-12T20:15:44.297Z,96036.69
2022-08-12T20:20:47.897Z,96054.19
2022-08-12T20:25:52.178Z,96049.16
2022-08-12T20:31:00.829Z,96041.25
2022-08-12T20:36:14.019Z,96028.84
2022-08-12T20:41:26.643Z,96036.34
2022-08-12T20:46:32.449Z,96036.44
2022-08-12T20:51:54.600Z,96033.88
2022-08-12T20:56:58.411Z,96039.00
2022-08-12T21:02:05.800Z,96045.72
2022-08-12T21:07:11.364Z,96035.56
2022-08-12T21:12:31.507Z,96044.28
2022-08-12T21:18:09.769Z,96038.88
2022-08-12T21:23:12.774Z,96031.19
2022-08-12T21:28:15.313Z,96046.56
2022-08-12T21:33:18.501Z,96034.69
2022-08-12T21:38:21.806Z,96041.09
2022-08-12T21:43:28.824Z,96039.09
2022-08-12T21:48:49.767Z,96021.97
2022-08-12T21:54:06.968Z,96033.03
2022-08-12T21:59:14.512Z,96044.75
2022-08-12T22:04:36.398Z,96035.16
2022-08-12T22:09:43.068Z,96023.38
2022-08-12T22:14:46.560Z,96041.41
2022-08-12T22:19:49.895Z,96027.91
2022-08-12T22:24:53.028Z,96035.81
2022-08-12T22:30:19.755Z,96017.22
2022-08-12T22:35:56.639Z,95989.72
2022-08-12T22:41:01.634Z,96017.22
2022-08-12T22:46:26.675Z,96009.16
2022-08-12T22:52:03.002Z,96003.97
2022-08-12T22:56:56.444Z,96018.03
2022-08-12T23:02:01.690Z,95991.78
2022-08-12T23:07:05.212Z,96012.25
2022-08-12T23:12:08.152Z,95997.53
2022-08-12T23:17:40.041Z,95968.47
2022-08-12T23:23:02.728Z,96002.53
2022-08-12T23:28:29.964Z,95995.72
2022-08-12T23:34:00.555Z,95990.00
2022-08-12T23:39:01.713Z,95979.56
2022-08-12T23:44:06.907Z,95980.47
2022-08-12T23:49:55.504Z,95974.31
2022-08-12T23:54:38.755Z,95976.84
2022-08-12T23:59:43.466Z,95957.69
